YMHBNFFN

Guest
Details From YMHB - Hobart
To NFFN - Nadi Intl
Flight Number -
Tags Generated
Created
Modified
Stats Distance 2,141 nm / 3,965 km
Max Altitude 0 ft / 0 m
Waypoints 3
Social Downloads 1
Likes 0
Share VATSIM

Download

Looking for another format? Having issues loading an existing format? Contact us
Advertisement - Login to hide

Notes

Generated

Route

YMHB MINB NFFN

ID Type Via Altitude Latitude Longitude Leg Dist Tot Dist Heading (true) Name
O YMHB APT - 0 ft / 0 m -42.82898˚ 147.50206˚ - 0 nm - -
MINB FIX - 0 ft / 0 m -17.90000˚ 177.32556˚ 2130 nm 2130 nm 55° / 39° -
O NFFN APT - 0 ft / 0 m -17.75352˚ 177.43591˚ 10 nm 2141 nm 36° / 36° -

Altitude Profile

Advertisement - Login to hide

Weather


0- 5 10 15 20 25 30 35+ Temperature / ° C

Clouds and Precipitation
Forecast for 2018-05-24 18:00 UTC. Updated 5 hours ago

Ground ~20,000 ft ~40,000 ft Winds

YMHB

Details ICAO YMHB (HBA)
Name Hobart
Region Australia
Timezone Australia/Hobart (UTC+10.0)
Stats Elevation 12 ft / 4 m (AMSL)
Location -42.836167° 147.511798°
Runways 1
Magnetic Variation 15.114° E

METAR

YMHB 242200Z 31007KT 9999 FEW040 BKN350 04/02 Q1029 RF00.0/000.0

Decode

TAF

TAF YMHB 241713Z 2418/2518 31008KT 9999 FEW030

Decode

Departure Runways

ID Width Length Bearing (true) Bearing (mag) Surface Threshold Offset Overrun Length
12 148 ft / 45 m 7,379 ft / 2,249 m 135.11° 120.00° Asphalt 0 ft / 0 m 0 ft / 0 m
30 148 ft / 45 m 7,379 ft / 2,249 m 315.09° 299.98° Asphalt 0 ft / 0 m 0 ft / 0 m

NFFN

Details ICAO NFFN (NAN)
Name Nadi Intl
Region Fiji and Tonga
Timezone Pacific/Fiji (UTC+12.0)
Stats Elevation 59 ft / 18 m (AMSL)
Location -17.758366° 177.442147°
Runways 2
Magnetic Variation 12.418° E

METAR

NFFN 242200Z VRB02KT 9999 FEW030 SCT300 29/22 Q1014 NOSIG

Decode

TAF

TAF NFFN 241701Z 2418/2518 08005KT 9999 FEW030 BECMG 2421/2423 28010KT PROB30 TEMPO 2502/2506 5000 SHRA BKN017 BECMG 2504/2506 08005KT

Decode

Destination Runways

ID Width Length Bearing (true) Bearing (mag) Surface Threshold Offset Overrun Length
02 151 ft / 46 m 10,529 ft / 3,209 m 37.50° 25.08° Asphalt 0 ft / 0 m 0 ft / 0 m
09 151 ft / 46 m 6,989 ft / 2,130 m 104.20° 91.78° Asphalt 0 ft / 0 m 95 ft / 29 m
20 151 ft / 46 m 10,529 ft / 3,209 m 217.50° 205.08° Asphalt 0 ft / 0 m 0 ft / 0 m
27 151 ft / 46 m 6,989 ft / 2,130 m 284.20° 271.78° Asphalt 0 ft / 0 m 0 ft / 0 m

Approach Navaids

Runway Type Ident Frequency Range Bearing (true) Bearing (mag) Slope Elevation
02 Localiser INN 109.90 MHz 18 nm / 33 km 37.49° 25.07° - 41 ft / 12 m (AMSL)
02 Glidescope INN 109.90 MHz 10 nm / 19 km 37.50° 25.08° 3.00° 59 ft / 18 m (AMSL)